Time;durP1;ratioP1;P1;durP2;ratioP2;P2;SDS_P1;SDS_P2;PMS_P1;PMS_P2;Temp;Humidity;BMP_temperature;BMP_pressure;BME280_temperature;BME280_humidity;BME280_pressure;Samples;Min_cycle;Max_cycle;Signal;HPM_P1;HPM_P2
2024/01/10 00:00:36;;;;;;;4.18;1.27;;;;;;;-0.20;100.00;101896.16;6120263;23;20040;-90
2024/01/10 00:03:01;;;;;;;11.07;1.70;;;;;;;-0.15;100.00;101894.50;6118752;23;20329;-91
2024/01/10 00:05:27;;;;;;;6.25;1.40;;;;;;;-0.18;100.00;101904.66;6120112;23;20062;-90
2024/01/10 00:07:52;;;;;;;17.65;1.70;;;;;;;-0.15;100.00;101892.81;6119170;23;20048;-89
2024/01/10 00:10:17;;;;;;;10.13;1.70;;;;;;;-0.17;100.00;101881.84;6120249;23;20010;-91
2024/01/10 00:12:44;;;;;;;13.98;2.08;;;;;;;-0.19;100.00;101888.56;6120123;23;20310;-91
2024/01/10 00:15:09;;;;;;;11.35;1.60;;;;;;;-0.20;100.00;101883.47;6120482;23;20409;-88
2024/01/10 00:17:35;;;;;;;12.75;1.92;;;;;;;-0.19;100.00;101893.66;6118958;23;20012;-91
2024/01/10 00:20:00;;;;;;;6.00;1.30;;;;;;;-0.23;100.00;101894.44;6119165;23;20002;-91
2024/01/10 00:22:25;;;;;;;6.30;1.20;;;;;;;-0.22;100.00;101891.06;6120691;23;20029;-91
2024/01/10 00:24:51;;;;;;;9.05;1.80;;;;;;;-0.14;100.00;101899.63;6119305;23;20437;-91
2024/01/10 00:27:16;;;;;;;7.47;1.33;;;;;;;-0.15;100.00;101889.44;6118827;23;20034;-92
2024/01/10 00:29:41;;;;;;;5.95;1.58;;;;;;;-0.12;100.00;101904.69;6120433;23;20006;-91
2024/01/10 00:32:07;;;;;;;6.43;1.35;;;;;;;-0.08;100.00;101886.13;6118968;23;19998;-92
2024/01/10 00:34:32;;;;;;;12.50;1.65;;;;;;;-0.10;100.00;101873.44;6119134;23;20032;-91
2024/01/10 00:36:57;;;;;;;9.07;1.35;;;;;;;-0.03;100.00;101885.31;6120343;23;20441;-91
2024/01/10 00:39:23;;;;;;;9.98;1.25;;;;;;;-0.05;100.00;101883.63;6120505;23;20014;-91
2024/01/10 00:41:48;;;;;;;12.95;1.45;;;;;;;0.05;100.00;101887.09;6121774;23;20008;-92
2024/01/10 00:44:13;;;;;;;11.80;1.40;;;;;;;-0.05;100.00;101881.94;6120359;23;20002;-91
2024/01/10 00:46:39;;;;;;;4.47;0.93;;;;;;;-0.02;100.00;101878.59;6120315;23;20017;-91
2024/01/10 00:49:04;;;;;;;10.75;1.67;;;;;;;-0.01;100.00;101868.44;6120351;23;20002;-91
2024/01/10 00:51:29;;;;;;;12.75;1.30;;;;;;;0.05;100.00;101882.00;6120154;23;20444;-92
2024/01/10 00:53:55;;;;;;;9.20;1.55;;;;;;;0.05;100.00;101880.34;6120174;23;20322;-91
2024/01/10 00:56:20;;;;;;;13.02;1.60;;;;;;;0.11;100.00;101874.47;6121796;23;20052;-91
2024/01/10 00:58:45;;;;;;;11.30;2.90;;;;;;;0.10;100.00;101886.31;6121803;23;20032;-92
2024/01/10 01:01:11;;;;;;;5.78;1.98;;;;;;;0.18;100.00;101873.69;6120413;23;20006;-90
2024/01/10 01:03:37;;;;;;;13.98;2.55;;;;;;;0.05;100.00;101871.84;6121179;23;20006;-91
2024/01/10 01:06:03;;;;;;;13.65;1.50;;;;;;;0.09;100.00;101865.97;6121697;23;20010;-92
2024/01/10 01:08:28;;;;;;;7.70;1.63;;;;;;;0.23;100.00;101874.56;6120393;23;20014;-91
2024/01/10 01:10:54;;;;;;;8.80;1.10;;;;;;;0.18;100.00;101868.59;6120558;23;20337;-91
2024/01/10 01:13:19;;;;;;;14.15;1.95;;;;;;;0.23;100.00;101856.78;6122085;23;20006;-91
2024/01/10 01:15:44;;;;;;;9.38;1.58;;;;;;;0.22;100.00;101862.72;6120003;23;20337;-91
2024/01/10 01:18:12;;;;;;;8.90;1.40;;;;;;;0.11;100.00;101866.84;6121930;23;20450;-91
2024/01/10 01:20:38;;;;;;;7.63;1.13;;;;;;;0.11;100.00;101866.84;6120173;23;20089;-91
2024/01/10 01:23:03;;;;;;;7.88;1.33;;;;;;;0.25;100.00;101852.59;6121704;23;20002;-92
2024/01/10 01:25:28;;;;;;;5.57;1.10;;;;;;;0.19;100.00;101860.13;6120239;23;20077;-91
2024/01/10 01:27:54;;;;;;;8.32;1.65;;;;;;;0.11;100.00;101852.47;6121307;23;20006;-91
2024/01/10 01:30:21;;;;;;;16.15;2.20;;;;;;;0.06;100.00;101860.88;6120028;23;20006;-91
2024/01/10 01:32:47;;;;;;;10.45;1.25;;;;;;;0.10;100.00;101860.06;6119948;23;20097;-92
2024/01/10 01:35:12;;;;;;;16.23;1.60;;;;;;;0.07;100.00;101858.34;6119534;23;20038;-92
2024/01/10 01:37:37;;;;;;;10.93;3.17;;;;;;;0.11;100.00;101857.53;6119503;23;20305;-91
2024/01/10 01:40:03;;;;;;;12.25;2.60;;;;;;;0.17;100.00;101846.56;6119455;23;20033;-92
2024/01/10 01:42:29;;;;;;;7.75;1.25;;;;;;;0.17;100.00;101852.53;6119694;23;19997;-91
2024/01/10 01:44:54;;;;;;;5.20;1.52;;;;;;;0.19;100.00;101860.13;6119620;23;20014;-91
2024/01/10 01:47:19;;;;;;;7.07;1.70;;;;;;;0.18;100.00;101853.38;6120776;23;20043;-91
2024/01/10 01:49:45;;;;;;;9.20;1.73;;;;;;;0.16;100.00;101842.34;6119797;23;20002;-91
2024/01/10 01:52:11;;;;;;;4.72;1.52;;;;;;;0.08;100.00;101846.53;6120986;23;20417;-92
2024/01/10 01:54:36;;;;;;;11.95;1.75;;;;;;;0.11;100.00;101833.84;6121243;23;20052;-91
2024/01/10 01:57:02;;;;;;;7.38;1.60;;;;;;;0.09;100.00;101843.97;6119711;23;20010;-90
2024/01/10 01:59:28;;;;;;;9.15;1.85;;;;;;;0.09;100.00;101850.75;6119644;23;20306;-91
2024/01/10 02:01:56;;;;;;;6.53;1.70;;;;;;;0.12;100.00;101849.09;6121150;23;20001;-91
2024/01/10 02:04:22;;;;;;;16.05;1.70;;;;;;;0.09;100.00;101848.22;6119420;23;20002;-91
2024/01/10 02:06:47;;;;;;;16.10;1.95;;;;;;;0.06;100.00;101848.19;6119524;23;20395;-91
2024/01/10 02:09:13;;;;;;;11.88;1.45;;;;;;;0.09;100.00;101848.22;6120076;23;20028;-91
2024/01/10 02:11:38;;;;;;;9.05;1.52;;;;;;;0.10;100.00;101845.69;6119438;23;20006;-91
2024/01/10 02:14:05;;;;;;;14.90;2.30;;;;;;;0.18;100.00;101845.75;6121130;23;20034;-91
2024/01/10 02:16:30;;;;;;;17.08;3.05;;;;;;;0.17;100.00;101844.03;6119299;23;20008;-91
2024/01/10 02:18:56;;;;;;;10.27;1.50;;;;;;;0.08;100.00;101851.59;6119583;23;20089;-91
2024/01/10 02:21:22;;;;;;;12.60;1.15;;;;;;;0.18;100.00;101851.69;6120772;23;20002;-91
2024/01/10 02:23:47;;;;;;;13.90;2.38;;;;;;;-0.01;100.00;101848.13;6121354;23;20006;-91
2024/01/10 02:26:14;;;;;;;5.43;1.15;;;;;;;0.01;100.00;101854.91;6119622;23;20013;-91
2024/01/10 02:28:40;;;;;;;6.90;1.52;;;;;;;0.05;100.00;101852.44;6120887;23;19998;-91
2024/01/10 02:31:06;;;;;;;10.98;1.90;;;;;;;0.05;100.00;101846.47;6119560;23;20017;-91
2024/01/10 02:33:32;;;;;;;9.40;1.55;;;;;;;-0.01;100.00;101860.81;6119437;23;20010;-91
2024/01/10 02:35:58;;;;;;;8.27;2.45;;;;;;;-0.03;100.00;101849.78;6121146;23;20009;-92
2024/01/10 02:38:23;;;;;;;6.47;1.58;;;;;;;-0.05;100.00;101846.41;6121463;23;20072;-90
2024/01/10 02:40:49;;;;;;;15.93;2.63;;;;;;;-0.02;100.00;101843.91;6120002;23;20005;-92
2024/01/10 02:43:15;;;;;;;10.60;2.35;;;;;;;-0.05;100.00;101846.41;6119763;23;20018;-91
2024/01/10 02:45:41;;;;;;;13.13;1.70;;;;;;;0.03;100.00;101853.25;6120142;23;20002;-91
2024/01/10 02:48:06;;;;;;;12.45;1.52;;;;;;;0.06;100.00;101846.50;6121506;23;20013;-91
2024/01/10 02:50:32;;;;;;;10.90;1.95;;;;;;;0.05;100.00;101841.41;6121434;23;20325;-91
2024/01/10 02:52:57;;;;;;;10.07;1.95;;;;;;;-0.01;100.00;101845.59;6121059;23;20025;-91
2024/01/10 02:55:22;;;;;;;7.50;1.30;;;;;;;-0.05;100.00;101854.03;6121081;23;20080;-91
2024/01/10 02:57:48;;;;;;;12.75;1.95;;;;;;;-0.13;100.00;101850.56;6120669;23;20002;-92
2024/01/10 03:00:13;;;;;;;9.25;2.00;;;;;;;-0.01;100.00;101852.34;6121273;23;20005;-89
2024/01/10 03:02:39;;;;;;;13.18;1.50;;;;;;;-0.01;100.00;101853.19;6120072;22;20005;-91
2024/01/10 03:05:04;;;;;;;7.13;1.30;;;;;;;-0.06;100.00;101847.25;6121378;23;20437;-92
2024/01/10 03:07:30;;;;;;;13.07;4.35;;;;;;;-0.13;100.00;101848.03;6121696;23;20013;-92
2024/01/10 03:09:55;;;;;;;12.90;1.88;;;;;;;-0.12;100.00;101847.19;6121670;23;20081;-92
2024/01/10 03:12:20;;;;;;;7.97;1.75;;;;;;;0.06;100.00;101853.28;6119753;23;19998;-91
2024/01/10 03:14:46;;;;;;;8.75;1.75;;;;;;;0.06;100.00;101848.19;6121292;23;20006;-91
2024/01/10 03:17:11;;;;;;;11.45;1.33;;;;;;;-0.03;100.00;101859.09;6121120;23;20433;-91
2024/01/10 03:19:43;;;;;;;15.82;2.95;;;;;;;-0.09;100.00;101854.00;6121613;23;20021;-91
2024/01/10 03:22:09;;;;;;;7.15;1.55;;;;;;;-0.04;100.00;101852.34;6121800;23;20425;-92
2024/01/10 03:24:34;;;;;;;9.40;1.30;;;;;;;-0.05;100.00;101858.22;6121327;23;20078;-91
2024/01/10 03:26:59;;;;;;;8.85;1.60;;;;;;;-0.07;100.00;101853.16;6121524;23;20006;-91
2024/01/10 03:29:25;;;;;;;7.25;2.08;;;;;;;-0.09;100.00;101857.38;6121383;23;20037;-91
2024/01/10 03:31:50;;;;;;;9.70;1.85;;;;;;;-0.14;100.00;101851.41;6121112;23;20009;-91
2024/01/10 03:34:17;;;;;;;7.90;2.10;;;;;;;-0.11;100.00;101851.44;6121558;23;20385;-90
2024/01/10 03:36:43;;;;;;;3.15;1.23;;;;;;;-0.09;100.00;101852.28;6121462;23;20006;-91
2024/01/10 03:39:09;;;;;;;5.63;1.45;;;;;;;-0.07;100.00;101853.16;6119350;23;20045;-90
2024/01/10 03:41:34;;;;;;;11.18;2.20;;;;;;;0.02;100.00;101851.53;6121262;23;20002;-92
2024/01/10 03:43:59;;;;;;;10.65;1.45;;;;;;;0.00;100.00;101854.09;6121253;23;20006;-92
2024/01/10 03:46:25;;;;;;;14.02;1.60;;;;;;;0.02;100.00;101842.22;6119423;23;20010;-91
2024/01/10 03:48:52;;;;;;;7.43;1.42;;;;;;;-0.08;100.00;101846.38;6119731;23;20437;-91
2024/01/10 03:51:18;;;;;;;10.63;2.35;;;;;;;-0.03;100.00;101859.09;6119591;23;20013;-90
2024/01/10 03:53:48;;;;;;;6.55;1.30;;;;;;;0.03;100.00;101858.34;6121335;23;20002;-91
2024/01/10 03:56:14;;;;;;;15.00;1.80;;;;;;;-0.01;100.00;101863.34;6119306;23;20033;-90
2024/01/10 03:58:39;;;;;;;5.25;1.80;;;;;;;0.01;100.00;101863.38;6121187;23;20095;-91
2024/01/10 04:01:06;;;;;;;3.95;1.63;;;;;;;0.05;100.00;101854.09;6121044;23;20015;-92
2024/01/10 04:03:32;;;;;;;11.50;1.40;;;;;;;-0.09;100.00;101846.38;6121063;23;20006;-91
2024/01/10 04:05:57;;;;;;;13.88;2.05;;;;;;;-0.05;100.00;101851.50;6120649;23;20097;-89
2024/01/10 04:08:22;;;;;;;7.53;1.60;;;;;;;-0.13;100.00;101852.25;6119139;23;19998;-92
2024/01/10 04:10:48;;;;;;;7.60;1.60;;;;;;;-0.10;100.00;101850.59;6121446;23;20036;-91
2024/01/10 04:13:13;;;;;;;3.95;1.00;;;;;;;-0.02;100.00;101841.38;6120483;23;20006;-92
2024/01/10 04:15:38;;;;;;;4.38;1.48;;;;;;;-0.11;100.00;101845.50;6121857;23;20057;-92
2024/01/10 04:18:04;;;;;;;11.65;1.77;;;;;;;-0.03;100.00;101843.88;6122145;23;20044;-91
2024/01/10 04:20:31;;;;;;;9.18;1.42;;;;;;;-0.14;100.00;101842.94;6120654;23;20029;-91
2024/01/10 04:22:57;;;;;;;8.32;2.35;;;;;;;-0.14;100.00;101851.41;6120597;23;20674;-91
2024/01/10 04:25:22;;;;;;;10.55;1.30;;;;;;;-0.11;100.00;101841.28;6120361;23;19998;-92
2024/01/10 04:27:50;;;;;;;6.55;1.52;;;;;;;-0.05;100.00;101846.41;6122408;23;20001;-91
2024/01/10 04:30:15;;;;;;;7.18;1.20;;;;;;;-0.06;100.00;101843.84;6121998;23;20002;-91
2024/01/10 04:32:41;;;;;;;10.38;3.83;;;;;;;-0.13;100.00;101844.63;6120403;23;20055;-91
2024/01/10 04:35:06;;;;;;;7.00;1.63;;;;;;;-0.09;100.00;101841.31;6120401;23;20306;-91
2024/01/10 04:37:32;;;;;;;18.30;1.25;;;;;;;-0.11;100.00;101850.59;6121926;23;20135;-91
2024/01/10 04:39:57;;;;;;;8.63;1.30;;;;;;;-0.04;100.00;101848.09;6121934;23;20013;-90
2024/01/10 04:42:23;;;;;;;10.18;2.53;;;;;;;-0.23;100.00;101836.09;6121844;23;20001;-91
2024/01/10 04:44:49;;;;;;;8.15;1.23;;;;;;;-0.15;100.00;101839.53;6121147;23;20092;-91
2024/01/10 04:47:15;;;;;;;9.90;1.45;;;;;;;-0.16;100.00;101850.53;6121833;23;20006;-91
2024/01/10 04:49:40;;;;;;;10.52;1.42;;;;;;;-0.06;100.00;101849.78;6120236;23;20005;-91
2024/01/10 04:52:06;;;;;;;4.80;1.30;;;;;;;-0.07;100.00;101837.94;6122143;23;20073;-91
2024/01/10 04:54:31;;;;;;;11.43;2.65;;;;;;;-0.09;100.00;101828.59;6121793;23;20009;-90
2024/01/10 04:56:56;;;;;;;8.00;1.38;;;;;;;-0.10;100.00;101837.91;6121651;23;20322;-91
2024/01/10 04:59:22;;;;;;;9.65;1.33;;;;;;;-0.01;100.00;101843.06;6119902;23;20085;-91
2024/01/10 05:01:47;;;;;;;6.70;1.40;;;;;;;-0.19;100.00;101830.22;6121207;23;20002;-90
2024/01/10 05:04:12;;;;;;;5.97;1.20;;;;;;;-0.11;100.00;101835.34;6119729;23;20006;-91
2024/01/10 05:06:38;;;;;;;8.60;1.67;;;;;;;-0.15;100.00;101829.38;6121451;23;20340;-91
2024/01/10 05:09:04;;;;;;;10.32;1.77;;;;;;;-0.12;100.00;101837.03;6119840;23;20006;-91
2024/01/10 05:11:30;;;;;;;8.80;1.90;;;;;;;-0.11;100.00;101836.19;6119904;23;20033;-93
2024/01/10 05:13:55;;;;;;;14.18;2.17;;;;;;;-0.10;100.00;101832.84;6121441;23;20492;-91
2024/01/10 05:16:21;;;;;;;12.02;1.48;;;;;;;-0.15;100.00;101831.91;6121121;23;20099;-91
2024/01/10 05:18:47;;;;;;;11.98;1.70;;;;;;;-0.11;100.00;101831.13;6121167;23;20010;-91
2024/01/10 05:21:12;;;;;;;9.85;1.08;;;;;;;-0.12;100.00;101833.63;6120996;23;20325;-91
2024/01/10 05:23:39;;;;;;;8.77;1.55;;;;;;;-0.12;100.00;101834.50;6119954;23;20051;-92
2024/01/10 05:26:04;;;;;;;9.27;1.42;;;;;;;-0.16;100.00;101842.06;6121427;23;20420;-91
2024/01/10 05:28:30;;;;;;;13.23;1.70;;;;;;;-0.11;100.00;101831.13;6121176;23;20002;-91
2024/01/10 05:30:55;;;;;;;10.10;2.03;;;;;;;-0.13;100.00;101832.78;6119818;23;20017;-92
2024/01/10 05:33:21;;;;;;;9.70;1.88;;;;;;;-0.12;100.00;101824.34;6121243;23;20421;-92
2024/01/10 05:35:47;;;;;;;6.53;1.48;;;;;;;-0.12;100.00;101844.66;6121049;23;20006;-91
2024/01/10 05:38:12;;;;;;;14.35;2.10;;;;;;;-0.10;100.00;101822.69;6121185;23;20089;-91
2024/01/10 05:40:37;;;;;;;9.50;1.95;;;;;;;-0.14;100.00;101826.03;6121396;23;20002;-91
2024/01/10 05:43:03;;;;;;;9.48;1.35;;;;;;;-0.21;100.00;101834.41;6120924;23;20306;-91
2024/01/10 05:45:28;;;;;;;11.85;1.52;;;;;;;-0.09;100.00;101834.53;6121168;23;20010;-91
2024/01/10 05:47:54;;;;;;;14.88;1.83;;;;;;;0.09;100.00;101832.97;6121296;23;20006;-92
2024/01/10 05:50:20;;;;;;;6.68;1.85;;;;;;;-0.10;100.00;101837.91;6121118;23;20005;-92
2024/01/10 05:52:46;;;;;;;5.88;1.70;;;;;;;-0.02;100.00;101841.38;6121074;23;20012;-91
2024/01/10 05:55:11;;;;;;;7.15;1.50;;;;;;;-0.11;100.00;101836.19;6121268;23;20077;-92
2024/01/10 05:57:37;;;;;;;5.00;1.40;;;;;;;-0.18;100.00;101829.38;6120836;23;20002;-91
2024/01/10 06:00:04;;;;;;;9.93;1.55;;;;;;;-0.19;100.00;101826.84;6121139;23;20089;-90
2024/01/10 06:02:30;;;;;;;6.53;1.58;;;;;;;-0.22;100.00;101837.78;6121138;23;20006;-91
2024/01/10 06:04:55;;;;;;;5.97;1.30;;;;;;;-0.19;100.00;101835.28;6121028;23;20012;-91
2024/01/10 06:07:20;;;;;;;11.40;1.80;;;;;;;-0.25;100.00;101832.69;6119593;23;20006;-90
2024/01/10 06:09:47;;;;;;;19.85;3.15;;;;;;;-0.18;100.00;101839.50;6119807;23;20459;-91
2024/01/10 06:12:13;;;;;;;6.05;2.03;;;;;;;-0.26;100.00;101836.91;6121683;23;20006;-91
2024/01/10 06:14:38;;;;;;;5.55;1.83;;;;;;;-0.27;100.00;101839.41;6121743;23;20326;-91
2024/01/10 06:17:03;;;;;;;8.05;1.45;;;;;;;-0.28;100.00;101848.72;6119994;23;20017;-91
2024/01/10 06:19:31;;;;;;;7.57;1.90;;;;;;;-0.31;100.00;101835.16;6119735;23;20038;-91
2024/01/10 06:21:57;;;;;;;12.15;1.90;;;;;;;-0.34;100.00;101848.69;6119991;23;20002;-91
2024/01/10 06:24:22;;;;;;;7.03;1.55;;;;;;;-0.36;100.00;101847.81;6121350;23;20051;-91
2024/01/10 06:26:49;;;;;;;5.90;2.38;;;;;;;-0.35;100.00;101849.50;6119851;23;20037;-93
2024/01/10 06:29:15;;;;;;;8.80;1.73;;;;;;;-0.20;100.00;101851.34;6121488;23;20525;-92
2024/01/10 06:31:40;;;;;;;11.25;1.58;;;;;;;-0.27;100.00;101854.63;6121382;23;20217;-91
2024/01/10 06:34:05;;;;;;;9.65;1.70;;;;;;;-0.35;100.00;101848.66;6120680;23;20001;-91
2024/01/10 06:36:31;;;;;;;10.82;1.60;;;;;;;-0.33;100.00;101850.38;6121226;23;20065;-91
2024/01/10 06:38:56;;;;;;;8.80;1.92;;;;;;;-0.38;100.00;101851.16;6119567;23;20014;-92
2024/01/10 06:41:24;;;;;;;7.43;1.58;;;;;;;-0.32;100.00;101852.06;6119691;23;20013;-92
2024/01/10 06:43:50;;;;;;;11.20;1.80;;;;;;;-0.28;100.00;101863.09;6121013;23;20010;-91
2024/01/10 06:46:16;;;;;;;5.10;1.80;;;;;;;-0.34;100.00;101863.03;6119789;23;20393;-91
2024/01/10 06:48:41;;;;;;;11.35;1.90;;;;;;;-0.30;100.00;101859.69;6119943;23;20046;-91
2024/01/10 06:51:12;;;;;;;12.93;2.03;;;;;;;-0.41;100.00;101851.09;6121521;23;20002;-91
2024/01/10 06:53:38;;;;;;;6.05;1.55;;;;;;;-0.27;100.00;101858.06;6119590;23;20002;-91
2024/01/10 06:56:03;;;;;;;8.48;2.88;;;;;;;-0.37;100.00;101856.22;6121162;23;20006;-91
2024/01/10 06:58:29;;;;;;;12.60;2.00;;;;;;;-0.26;100.00;101869.88;6121191;23;20045;-90
2024/01/10 07:00:54;;;;;;;16.55;2.45;;;;;;;-0.19;100.00;101863.19;6121247;23;20005;-91
2024/01/10 07:03:19;;;;;;;5.93;1.77;;;;;;;-0.30;100.00;101864.75;6121288;23;20055;-91
2024/01/10 07:05:45;;;;;;;11.60;1.83;;;;;;;-0.30;100.00;101867.31;6121491;23;20051;-91
2024/01/10 07:08:10;;;;;;;8.93;1.88;;;;;;;-0.24;100.00;101865.69;6121139;23;20010;-91
2024/01/10 07:10:38;;;;;;;12.95;1.63;;;;;;;-0.16;100.00;101863.22;6119792;23;20089;-91
2024/01/10 07:13:04;;;;;;;9.05;2.88;;;;;;;-0.20;100.00;101864.03;6119491;23;20093;-91
2024/01/10 07:15:30;;;;;;;10.52;2.38;;;;;;;-0.19;100.00;101862.34;6121286;23;20033;-91
2024/01/10 07:17:55;;;;;;;13.85;2.03;;;;;;;-0.17;100.00;101861.53;6119556;23;20426;-92
2024/01/10 07:20:20;;;;;;;5.63;2.03;;;;;;;-0.14;100.00;101856.47;6119284;23;20006;-91
2024/01/10 07:22:46;;;;;;;9.40;1.73;;;;;;;-0.12;100.00;101861.56;6119657;23;20006;-91
2024/01/10 07:25:14;;;;;;;7.13;1.65;;;;;;;-0.21;100.00;101859.78;6120821;23;20452;-91
2024/01/10 07:27:42;;;;;;;12.90;2.20;;;;;;;-0.22;100.00;101853.00;6120653;23;20051;-91
2024/01/10 07:30:13;;;;;;;8.95;1.25;;;;;;;-0.28;100.00;101848.72;6120691;23;19998;-91
2024/01/10 07:32:45;;;;;;;7.25;1.70;;;;;;;-0.20;100.00;101860.63;6120386;23;20337;-92
2024/01/10 07:35:12;;;;;;;11.93;1.67;;;;;;;-0.23;100.00;101861.47;6120622;23;20006;-91
2024/01/10 07:37:39;;;;;;;13.68;2.53;;;;;;;-0.30;100.00;101859.69;6120466;23;20006;-92
2024/01/10 07:40:06;;;;;;;9.02;2.97;;;;;;;-0.23;100.00;101859.75;6118958;23;20016;-92
2024/01/10 07:42:32;;;;;;;7.15;2.35;;;;;;;-0.26;100.00;101872.44;6118991;23;19998;-92
2024/01/10 07:44:57;;;;;;;10.15;2.00;;;;;;;-0.27;100.00;101867.31;6120990;23;20059;-92
2024/01/10 07:47:23;;;;;;;16.08;1.83;;;;;;;-0.29;100.00;101869.03;6121612;23;20005;-91
2024/01/10 07:49:48;;;;;;;9.68;1.60;;;;;;;-0.27;100.00;101872.41;6121695;23;20002;-92
2024/01/10 07:52:16;;;;;;;10.82;1.67;;;;;;;-0.23;100.00;101885.13;6121547;23;20006;-91
2024/01/10 07:54:41;;;;;;;6.78;1.52;;;;;;;-0.17;100.00;101870.81;6120170;23;20006;-91
2024/01/10 07:57:06;;;;;;;7.68;1.50;;;;;;;-0.23;100.00;101876.69;6121439;23;20490;-91
2024/01/10 07:59:32;;;;;;;11.38;1.80;;;;;;;-0.29;100.00;101882.56;6121429;23;20016;-92
2024/01/10 08:02:00;;;;;;;14.50;1.85;;;;;;;-0.26;100.00;101877.50;6119807;23;20017;-91
2024/01/10 08:04:29;;;;;;;9.32;2.20;;;;;;;-0.16;100.00;101878.44;6121694;23;20002;-91
2024/01/10 08:06:55;;;;;;;9.80;2.78;;;;;;;-0.18;100.00;101890.25;6121579;23;20006;-91
2024/01/10 08:09:21;;;;;;;7.03;1.50;;;;;;;-0.19;100.00;101888.56;6121753;23;20157;-92
2024/01/10 08:11:47;;;;;;;11.52;1.90;;;;;;;-0.17;100.00;101884.38;6120277;23;20187;-91
2024/01/10 08:14:13;;;;;;;5.57;1.92;;;;;;;-0.10;100.00;101892.88;6121527;23;20057;-91
2024/01/10 08:16:38;;;;;;;14.05;2.17;;;;;;;-0.10;100.00;101890.34;6121247;23;20002;-92
2024/01/10 08:19:04;;;;;;;9.50;2.42;;;;;;;-0.07;100.00;101891.22;6121541;23;20037;-91
2024/01/10 08:21:29;;;;;;;7.55;2.00;;;;;;;-0.03;100.00;101903.09;6120121;22;20017;-91
2024/01/10 08:23:54;;;;;;;7.53;2.42;;;;;;;-0.09;100.00;101889.53;6121467;23;20010;-91
2024/01/10 08:26:20;;;;;;;6.72;2.13;;;;;;;-0.04;100.00;101893.78;6119670;23;20337;-90
2024/01/10 08:28:45;;;;;;;7.00;2.38;;;;;;;-0.06;100.00;101895.47;6122054;23;20010;-91
2024/01/10 08:31:12;;;;;;;10.07;2.30;;;;;;;0.01;100.00;101900.63;6120071;23;19998;-91
2024/01/10 08:33:38;;;;;;;10.30;2.25;;;;;;;0.01;100.00;101898.91;6121749;23;20006;-91
2024/01/10 08:36:04;;;;;;;10.98;3.97;;;;;;;0.12;100.00;101893.94;6120381;23;20013;-91
2024/01/10 08:38:30;;;;;;;11.23;1.90;;;;;;;0.14;100.00;101898.19;6122014;23;20006;-91
2024/01/10 08:40:56;;;;;;;10.60;2.08;;;;;;;0.13;100.00;101901.56;6120613;23;20144;-91
2024/01/10 08:43:21;;;;;;;13.25;2.20;;;;;;;0.10;100.00;101896.47;6122142;23;20033;-92
2024/01/10 08:45:47;;;;;;;9.38;2.20;;;;;;;0.09;100.00;101904.06;6120340;23;20049;-92
2024/01/10 08:48:13;;;;;;;10.82;2.58;;;;;;;0.15;100.00;101906.69;6122005;23;20009;-91
2024/01/10 08:50:38;;;;;;;14.68;2.13;;;;;;;0.18;100.00;101906.69;6121939;23;20069;-91
2024/01/10 08:53:05;;;;;;;12.80;1.90;;;;;;;0.13;100.00;101905.81;6122052;23;20048;-91
2024/01/10 08:55:34;;;;;;;8.27;1.90;;;;;;;0.14;100.00;101917.66;6120146;23;20088;-91
2024/01/10 08:57:59;;;;;;;9.20;2.10;;;;;;;0.11;100.00;101907.47;6121433;23;20365;-92
2024/01/10 09:00:24;;;;;;;15.85;2.60;;;;;;;0.16;100.00;101904.13;6120621;23;20467;-92
2024/01/10 09:02:50;;;;;;;13.55;2.10;;;;;;;0.25;100.00;101910.16;6120470;23;20532;-92
2024/01/10 09:05:16;;;;;;;13.80;2.00;;;;;;;0.22;100.00;101916.06;6121848;23;20006;-90
2024/01/10 09:07:42;;;;;;;8.27;2.22;;;;;;;0.33;100.00;101911.91;6120247;23;20002;-91
2024/01/10 09:10:08;;;;;;;7.93;2.00;;;;;;;0.27;100.00;101904.25;6119916;23;20006;-91
2024/01/10 09:12:34;;;;;;;10.20;1.90;;;;;;;0.36;100.00;101901.75;6120415;23;20092;-91
2024/01/10 09:14:59;;;;;;;13.18;2.20;;;;;;;0.41;100.00;101915.38;6121956;23;19998;-91
2024/01/10 09:17:24;;;;;;;8.88;1.80;;;;;;;0.48;100.00;101907.78;6120019;23;20002;-91
2024/01/10 09:19:50;;;;;;;6.63;2.05;;;;;;;0.48;100.00;101913.72;6121870;23;20013;-91
2024/01/10 09:22:15;;;;;;;10.40;2.75;;;;;;;0.40;100.00;101915.34;6120146;23;20425;-91
2024/01/10 09:24:41;;;;;;;15.30;2.42;;;;;;;0.42;100.00;101919.59;6121590;23;20333;-91
2024/01/10 09:27:07;;;;;;;12.18;2.67;;;;;;;0.46;100.00;101920.47;6120169;23;20009;-91
2024/01/10 09:29:34;;;;;;;8.38;2.50;;;;;;;0.53;100.00;101916.28;6119861;23;20006;-91
2024/01/10 09:31:59;;;;;;;7.15;2.25;;;;;;;0.49;100.00;101914.56;6119907;23;20421;-91
2024/01/10 09:34:25;;;;;;;8.90;2.97;;;;;;;0.67;100.00;101929.94;6121517;23;20116;-91
2024/01/10 09:36:52;;;;;;;5.97;2.00;;;;;;;0.75;100.00;101925.75;6120072;23;20080;-92
2024/01/10 09:39:17;;;;;;;9.77;2.17;;;;;;;0.70;100.00;101929.97;6121104;23;20006;-90
2024/01/10 09:41:52;;;;;;;7.13;2.13;;;;;;;0.74;100.00;101929.16;6120941;23;20017;-91
2024/01/10 09:44:17;;;;;;;12.85;2.10;;;;;;;0.69;100.00;101928.28;6119720;23;20014;-92
2024/01/10 09:46:49;;;;;;;14.20;2.58;;;;;;;0.81;100.00;101923.28;6119514;23;20318;-90
2024/01/10 09:49:14;;;;;;;7.32;2.78;;;;;;;0.91;100.00;101934.34;6121175;23;20009;-92
2024/01/10 09:51:39;;;;;;;7.68;1.98;;;;;;;0.90;100.00;101936.88;6120940;23;20006;-92
2024/01/10 09:54:05;;;;;;;10.05;2.53;;;;;;;1.03;100.00;101933.59;6119631;23;20055;-93
2024/01/10 09:56:32;;;;;;;13.93;2.58;;;;;;;1.18;100.00;101938.75;6120896;23;20045;-91
2024/01/10 09:59:00;;;;;;;7.30;1.88;;;;;;;1.20;100.00;101936.22;6119559;23;20036;-93
2024/01/10 10:01:26;;;;;;;9.43;1.85;;;;;;;1.18;100.00;101932.81;6119911;23;20006;-92
2024/01/10 10:03:53;;;;;;;4.93;2.00;;;;;;;1.51;100.00;101937.19;6120131;23;20436;-91
2024/01/10 10:06:18;;;;;;;9.20;1.75;;;;;;;1.57;100.00;101937.25;6120982;23;20005;-92
2024/01/10 10:08:44;;;;;;;6.07;1.77;;;;;;;1.61;100.00;101920.28;6119223;23;19998;-91
2024/01/10 10:11:14;;;;;;;7.15;1.98;;;;;;;1.99;100.00;101925.47;6121108;23;20009;-90
2024/01/10 10:13:41;;;;;;;6.45;1.77;;;;;;;2.17;100.00;101931.44;6121088;23;20029;-91
2024/01/10 10:16:09;;;;;;;7.40;1.75;;;;;;;2.21;100.00;101928.06;6120852;23;20005;-91
2024/01/10 10:18:35;;;;;;;11.15;2.28;;;;;;;2.66;100.00;101934.88;6119448;23;20037;-92
2024/01/10 10:21:09;;;;;;;10.57;1.95;;;;;;;3.34;100.00;101933.03;6120879;23;20002;-91
2024/01/10 10:23:35;;;;;;;13.85;3.25;;;;;;;4.19;98.84;101937.69;6121171;23;20021;-90
2024/01/10 10:26:19;;;;;;;11.13;1.88;;;;;;;4.94;89.34;101931.97;6119536;23;20002;-91
2024/01/10 10:28:46;;;;;;;6.07;1.92;;;;;;;4.80;87.28;101931.25;6119395;23;20006;-90
2024/01/10 10:31:12;;;;;;;6.88;1.42;;;;;;;4.46;90.60;101944.31;6121232;23;20006;-91
2024/01/10 10:33:37;;;;;;;8.02;2.00;;;;;;;4.12;94.09;101936.03;6119384;23;20302;-91
2024/01/10 10:36:03;;;;;;;7.47;1.67;;;;;;;4.46;93.74;101946.88;6119419;23;20002;-91
2024/01/10 10:38:28;;;;;;;8.68;1.70;;;;;;;4.87;88.78;101927.75;6120762;23;20112;-92
2024/01/10 10:40:55;;;;;;;9.80;1.67;;;;;;;6.11;80.34;101933.94;6121439;23;20006;-92
2024/01/10 10:43:21;;;;;;;9.88;1.60;;;;;;;6.12;79.14;101945.03;6119281;23;20053;-92
2024/01/10 10:45:48;;;;;;;10.38;1.83;;;;;;;5.63;78.63;101954.22;6119763;23;19998;-92
2024/01/10 10:48:20;;;;;;;7.95;1.50;;;;;;;5.09;84.23;101947.16;6121030;23;20022;-92
2024/01/10 10:50:55;;;;;;;6.10;1.65;;;;;;;5.96;80.44;101950.41;6119693;23;20444;-92
2024/01/10 10:53:22;;;;;;;8.55;1.95;;;;;;;5.47;83.59;101939.91;6121178;23;20017;-92
2024/01/10 10:55:50;;;;;;;6.28;1.40;;;;;;;5.35;82.74;101943.47;6119736;23;20002;-92
2024/01/10 10:58:15;;;;;;;15.13;2.22;;;;;;;8.07;71.34;101944.84;6119560;23;20103;-93
2024/01/10 11:00:41;;;;;;;5.30;1.58;;;;;;;8.23;65.75;101944.47;6119840;23;20379;-93
2024/01/10 11:03:11;;;;;;;5.35;2.20;;;;;;;9.31;60.31;101927.97;6121317;23;20033;-92
2024/01/10 11:05:40;;;;;;;6.57;1.63;;;;;;;8.66;61.36;101943.47;6119698;23;20476;-92
2024/01/10 11:08:10;;;;;;;8.45;2.17;;;;;;;9.07;59.29;101933.78;6121428;23;20009;-93
2024/01/10 11:10:39;;;;;;;6.90;1.60;;;;;;;10.58;57.08;101940.44;6119652;23;20002;-92